Time;durP1;ratioP1;P1;durP2;ratioP2;P2;SDS_P1;SDS_P2;PMS_P1;PMS_P2;Temp;Humidity;BMP_temperature;BMP_pressure;BME280_temperature;BME280_humidity;BME280_pressure;Samples;Min_cycle;Max_cycle;Signal;HPM_P1;HPM_P2
2022/03/25 00:00:12;;;;;;;;;;;;;;;18.88;55.53;99712.88;2056149;28;19980;-55
2022/03/25 00:01:14;;;;;;;;;;;;;;;18.89;55.57;99713.75;2052877;28;19992;-54
2022/03/25 00:02:15;;;;;;;;;;;;;;;18.88;55.38;99722.81;2053725;28;19922;-56
2022/03/25 00:03:17;;;;;;;;;;;;;;;18.87;55.45;99716.59;2053040;28;20013;-54
2022/03/25 00:04:17;;;;;;;;;;;;;;;18.87;55.57;99716.59;2052326;28;19922;-55
2022/03/25 00:05:19;;;;;;;;;;;;;;;18.87;55.65;99715.75;2054175;28;20553;-55
2022/03/25 00:06:21;;;;;;;;;;;;;;;18.85;55.48;99715.94;2048681;28;19937;-55
2022/03/25 00:07:22;;;;;;;;;;;;;;;18.86;55.48;99714.06;2049716;28;19926;-54
2022/03/25 00:08:24;;;;;;;;;;;;;;;18.85;55.43;99717.78;2053197;28;19921;-55
2022/03/25 00:09:25;;;;;;;;;;;;;;;18.85;55.36;99718.63;2054733;28;19976;-53
2022/03/25 00:10:26;;;;;;;;;;;;;;;18.83;55.54;99707.19;2053683;28;19922;-54
2022/03/25 00:11:27;;;;;;;;;;;;;;;18.84;55.48;99714.25;2051132;28;20012;-54
2022/03/25 00:12:29;;;;;;;;;;;;;;;18.84;55.94;99716.97;2054523;28;19949;-54
2022/03/25 00:13:29;;;;;;;;;;;;;;;18.83;55.36;99715.25;2054727;28;19922;-56
2022/03/25 00:14:31;;;;;;;;;;;;;;;18.83;55.63;99714.44;2052993;28;20541;-53
2022/03/25 00:15:35;;;;;;;;;;;;;;;18.85;55.78;99717.78;2057431;28;20311;-54
2022/03/25 00:16:35;;;;;;;;;;;;;;;18.82;55.53;99721.66;2050423;28;19921;-54
2022/03/25 00:17:37;;;;;;;;;;;;;;;18.81;55.66;99709.25;2052839;28;19979;-56
2022/03/25 00:18:38;;;;;;;;;;;;;;;18.81;55.38;99713.81;2054017;28;20488;-55
2022/03/25 00:19:39;;;;;;;;;;;;;;;18.82;55.80;99716.28;2053879;28;19929;-56
2022/03/25 00:20:40;;;;;;;;;;;;;;;18.82;55.45;99724.34;2056048;28;19922;-55
2022/03/25 00:21:41;;;;;;;;;;;;;;;18.82;55.61;99720.84;2055844;28;20390;-53
2022/03/25 00:22:42;;;;;;;;;;;;;;;18.80;55.71;99710.25;2053831;28;20614;-53
2022/03/25 00:23:43;;;;;;;;;;;;;;;18.81;55.40;99720.00;2056349;28;20017;-54
2022/03/25 00:24:44;;;;;;;;;;;;;;;18.81;55.81;99706.56;2050855;28;19925;-54
2022/03/25 00:25:46;;;;;;;;;;;;;;;18.79;55.59;99710.44;2052814;28;20333;-52
2022/03/25 00:26:46;;;;;;;;;;;;;;;18.80;55.63;99717.47;2053374;28;19922;-54
2022/03/25 00:27:48;;;;;;;;;;;;;;;18.80;55.75;99710.25;2052984;28;19961;-53
2022/03/25 00:28:49;;;;;;;;;;;;;;;18.79;55.73;99705.91;2051067;28;19980;-53
2022/03/25 00:29:50;;;;;;;;;;;;;;;18.80;55.29;99702.19;2053422;28;20343;-56
2022/03/25 00:30:53;;;;;;;;;;;;;;;18.79;55.56;99719.34;2051767;28;20470;-54
2022/03/25 00:31:54;;;;;;;;;;;;;;;18.76;55.69;99698.19;2051745;28;19926;-54
2022/03/25 00:32:55;;;;;;;;;;;;;;;18.77;55.57;99709.78;2055521;28;19965;-54
2022/03/25 00:33:56;;;;;;;;;;;;;;;18.76;55.46;99711.63;2052217;28;20048;-54
2022/03/25 00:34:58;;;;;;;;;;;;;;;18.76;55.65;99714.31;2049930;28;19940;-52
2022/03/25 00:35:58;;;;;;;;;;;;;;;18.76;55.93;99717.00;2053405;28;19922;-55
2022/03/25 00:37:00;;;;;;;;;;;;;;;18.75;55.66;99710.81;2052761;28;19926;-53
2022/03/25 00:38:01;;;;;;;;;;;;;;;18.75;55.53;99718.03;2050209;28;20474;-54
2022/03/25 00:39:03;;;;;;;;;;;;;;;18.76;55.87;99719.69;2055914;28;19926;-55
2022/03/25 00:40:05;;;;;;;;;;;;;;;18.75;56.00;99715.34;2054481;28;19953;-53
2022/03/25 00:41:06;;;;;;;;;;;;;;;18.75;55.80;99718.03;2053943;28;20036;-53
2022/03/25 00:42:09;;;;;;;;;;;;;;;18.75;55.89;99715.34;2056152;28;19929;-56
2022/03/25 00:43:10;;;;;;;;;;;;;;;18.74;55.84;99717.16;2054183;28;19926;-53
2022/03/25 00:44:12;;;;;;;;;;;;;;;18.74;55.93;99708.28;2054202;28;20052;-56
2022/03/25 00:45:14;;;;;;;;;;;;;;;18.73;55.58;99710.09;2050228;28;19932;-53
2022/03/25 00:46:16;;;;;;;;;;;;;;;18.73;55.70;99710.09;2049142;28;20025;-54
2022/03/25 00:47:18;;;;;;;;;;;;;;;18.73;55.53;99709.28;2047649;28;19969;-52
2022/03/25 00:48:19;;;;;;;;;;;;;;;18.72;55.61;99705.75;2052505;28;20063;-54
2022/03/25 00:49:20;;;;;;;;;;;;;;;18.74;55.62;99702.91;2048830;28;19929;-53
2022/03/25 00:50:21;;;;;;;;;;;;;;;18.73;55.94;99706.59;2050115;28;21140;-54
2022/03/25 00:51:23;;;;;;;;;;;;;;;18.72;55.63;99704.91;2053375;28;19933;-55
2022/03/25 00:52:24;;;;;;;;;;;;;;;18.71;55.79;99708.59;2051080;28;20288;-55
2022/03/25 00:53:26;;;;;;;;;;;;;;;18.71;55.72;99705.91;2053915;28;20025;-54
2022/03/25 00:54:27;;;;;;;;;;;;;;;18.70;55.31;99693.50;2051643;28;20386;-56
2022/03/25 00:55:28;;;;;;;;;;;;;;;18.70;55.84;99705.09;2053500;28;19936;-54
2022/03/25 00:56:29;;;;;;;;;;;;;;;18.70;55.72;99702.41;2052270;28;19976;-53
2022/03/25 00:57:30;;;;;;;;;;;;;;;18.70;55.89;99705.09;2053648;28;20277;-56
2022/03/25 00:58:32;;;;;;;;;;;;;;;18.70;55.84;99704.25;2054824;28;19972;-54
2022/03/25 00:59:34;;;;;;;;;;;;;;;18.69;55.62;99695.38;2054721;28;20379;-54
2022/03/25 01:00:34;;;;;;;;;;;;;;;18.69;55.65;99702.56;2055279;28;20399;-60
2022/03/25 01:01:39;;;;;;;;;;;;;;;18.68;56.03;99707.09;2054534;28;19922;-56
2022/03/25 01:02:40;;;;;;;;;;;;;;;18.69;56.07;99694.50;2052637;28;20024;-51
2022/03/25 01:03:41;;;;;;;;;;;;;;;18.69;55.97;99702.56;2055350;28;19930;-54
2022/03/25 01:04:43;;;;;;;;;;;;;;;18.69;56.11;99702.56;2052886;28;20335;-52
2022/03/25 01:05:43;;;;;;;;;;;;;;;18.67;55.75;99701.94;2051949;28;19980;-53
2022/03/25 01:06:46;;;;;;;;;;;;;;;18.69;55.85;99700.75;2051918;28;19922;-56
2022/03/25 01:07:46;;;;;;;;;;;;;;;18.67;55.79;99699.25;2053391;28;19957;-52
2022/03/25 01:08:48;;;;;;;;;;;;;;;18.67;56.01;99697.38;2052262;28;20572;-55
2022/03/25 01:09:49;;;;;;;;;;;;;;;18.66;55.66;99698.38;2051226;28;19922;-51
2022/03/25 01:10:50;;;;;;;;;;;;;;;18.66;55.90;99686.81;2052621;28;19925;-51
2022/03/25 01:11:52;;;;;;;;;;;;;;;18.65;55.56;99695.88;2056553;28;20020;-56
2022/03/25 01:12:52;;;;;;;;;;;;;;;18.66;56.01;99693.00;2052826;28;19933;-57
2022/03/25 01:13:54;;;;;;;;;;;;;;;18.65;55.67;99688.66;2053546;28;19929;-55
2022/03/25 01:14:55;;;;;;;;;;;;;;;18.65;56.19;99693.19;2053497;28;20351;-52
2022/03/25 01:15:56;;;;;;;;;;;;;;;18.64;55.85;99694.22;2055002;28;19934;-55
2022/03/25 01:16:58;;;;;;;;;;;;;;;18.64;56.17;99686.16;2055407;28;19929;-55
2022/03/25 01:18:00;;;;;;;;;;;;;;;18.65;56.27;99685.16;2052233;28;19960;-53
2022/03/25 01:19:00;;;;;;;;;;;;;;;18.64;55.88;99695.06;2053162;28;19922;-51
2022/03/25 01:20:02;;;;;;;;;;;;;;;18.63;55.89;99695.22;2050136;28;20016;-54
2022/03/25 01:21:03;;;;;;;;;;;;;;;18.63;55.94;99695.22;2052865;28;20363;-53
2022/03/25 01:22:05;;;;;;;;;;;;;;;18.63;56.01;99692.53;2054847;28;19925;-53
2022/03/25 01:23:06;;;;;;;;;;;;;;;18.63;55.71;99698.75;2053917;28;20422;-52
2022/03/25 01:24:08;;;;;;;;;;;;;;;18.61;55.74;99695.41;2053745;28;19926;-55
2022/03/25 01:25:09;;;;;;;;;;;;;;;18.61;55.83;99692.72;2053557;28;19972;-53
2022/03/25 01:26:10;;;;;;;;;;;;;;;18.61;55.79;99698.09;2054117;28;19922;-53
2022/03/25 01:27:11;;;;;;;;;;;;;;;18.62;56.01;99696.25;2053581;28;20550;-51
2022/03/25 01:28:13;;;;;;;;;;;;;;;18.62;55.97;99690.88;2053215;28;20013;-53
2022/03/25 01:29:14;;;;;;;;;;;;;;;18.62;55.74;99696.25;2052989;28;20022;-53
2022/03/25 01:30:16;;;;;;;;;;;;;;;18.61;55.72;99692.72;2055123;28;19961;-51
2022/03/25 01:31:16;;;;;;;;;;;;;;;18.61;55.54;99689.19;2054285;28;19922;-51
2022/03/25 01:32:19;;;;;;;;;;;;;;;18.59;56.04;99692.06;2054711;28;19922;-54
2022/03/25 01:33:20;;;;;;;;;;;;;;;18.60;55.50;99695.59;2037513;28;19981;-56
2022/03/25 01:34:21;;;;;;;;;;;;;;;18.58;55.92;99689.53;2044839;28;20593;-53
2022/03/25 01:35:24;;;;;;;;;;;;;;;18.59;55.83;99689.38;2048395;28;20257;-53
2022/03/25 01:36:26;;;;;;;;;;;;;;;18.59;55.82;99683.16;2053731;28;20808;-52
2022/03/25 01:37:29;;;;;;;;;;;;;;;18.57;55.96;99675.28;2053494;28;19922;-49
2022/03/25 01:38:30;;;;;;;;;;;;;;;18.57;56.06;99682.50;2049614;28;19945;-50
2022/03/25 01:39:31;;;;;;;;;;;;;;;18.57;55.95;99672.59;2053740;28;19929;-57
2022/03/25 01:40:32;;;;;;;;;;;;;;;18.57;55.88;99680.66;2053248;28;20375;-53
2022/03/25 01:41:33;;;;;;;;;;;;;;;18.54;55.73;99676.47;2054414;28;19922;-53
2022/03/25 01:42:35;;;;;;;;;;;;;;;18.56;55.99;99675.47;2051332;28;20003;-55
2022/03/25 01:43:36;;;;;;;;;;;;;;;18.56;55.71;99670.09;2052991;28;20264;-50
2022/03/25 01:44:38;;;;;;;;;;;;;;;18.54;55.87;99671.09;2055573;28;19964;-49
2022/03/25 01:45:39;;;;;;;;;;;;;;;18.56;56.05;99670.09;2053011;28;19961;-53
2022/03/25 01:46:40;;;;;;;;;;;;;;;18.52;55.88;99675.78;2053100;28;19933;-50
2022/03/25 01:47:42;;;;;;;;;;;;;;;18.52;55.85;99677.66;2053283;28;19932;-53
2022/03/25 01:48:44;;;;;;;;;;;;;;;18.53;56.06;99669.44;2051889;28;20762;-53
2022/03/25 01:49:45;;;;;;;;;;;;;;;18.52;55.98;99680.34;2052585;28;19922;-51
2022/03/25 01:50:47;;;;;;;;;;;;;;;18.52;56.10;99667.75;2052061;28;20531;-53
2022/03/25 01:51:50;;;;;;;;;;;;;;;18.53;55.89;99665.91;2050236;28;19929;-57
2022/03/25 01:52:52;;;;;;;;;;;;;;;18.50;55.67;99674.34;2051972;28;19929;-54
2022/03/25 01:53:53;;;;;;;;;;;;;;;18.52;55.76;99672.28;2054226;28;19983;-52
2022/03/25 01:54:55;;;;;;;;;;;;;;;18.50;55.71;99672.47;2056222;28;19921;-54
2022/03/25 01:55:56;;;;;;;;;;;;;;;18.49;55.92;99676.16;2058309;28;19969;-54
2022/03/25 01:57:00;;;;;;;;;;;;;;;18.48;55.98;99671.81;2054948;28;19929;-58
2022/03/25 01:58:00;;;;;;;;;;;;;;;18.49;55.92;99676.16;2055205;28;19929;-52
2022/03/25 01:59:02;;;;;;;;;;;;;;;18.49;55.77;99670.78;2054219;28;20416;-49
2022/03/25 02:00:03;;;;;;;;;;;;;;;18.49;55.79;99669.94;2055586;28;20241;-56
2022/03/25 02:01:05;;;;;;;;;;;;;;;18.47;55.66;99671.97;2052433;28;19976;-53
2022/03/25 02:02:07;;;;;;;;;;;;;;;18.47;56.00;99675.53;2055269;28;20584;-52
2022/03/25 02:03:10;;;;;;;;;;;;;;;18.46;55.97;99668.47;2054545;28;20371;-51
2022/03/25 02:04:11;;;;;;;;;;;;;;;18.46;55.72;99668.47;2051606;28;19922;-52
2022/03/25 02:05:13;;;;;;;;;;;;;;;18.44;55.80;99670.50;2053296;28;20536;-54
2022/03/25 02:06:14;;;;;;;;;;;;;;;18.46;55.74;99670.31;2055103;28;20539;-55
2022/03/25 02:07:15;;;;;;;;;;;;;;;18.45;55.69;99671.34;2055989;28;19926;-50
2022/03/25 02:08:16;;;;;;;;;;;;;;;18.44;55.87;99666.97;2054954;28;20015;-55
2022/03/25 02:09:17;;;;;;;;;;;;;;;18.44;55.75;99675.88;2055558;28;19937;-56
2022/03/25 02:10:18;;;;;;;;;;;;;;;18.43;55.71;99671.50;2051335;28;20604;-50
2022/03/25 02:11:20;;;;;;;;;;;;;;;18.42;55.88;99669.84;2053487;28;19926;-55
2022/03/25 02:12:20;;;;;;;;;;;;;;;18.41;55.86;99672.69;2053663;28;20936;-56
2022/03/25 02:13:22;;;;;;;;;;;;;;;18.41;55.93;99667.31;2054962;28;19932;-58
2022/03/25 02:14:23;;;;;;;;;;;;;;;18.40;55.74;99671.84;2055153;28;19922;-53
2022/03/25 02:15:31;;;;;;;;;;;;;;;18.40;55.83;99666.47;2054901;28;20480;-54
2022/03/25 02:16:37;;;;;;;;;;;;;;;18.39;55.96;99664.00;2059242;28;19979;-51
2022/03/25 02:17:37;;;;;;;;;;;;;;;18.39;56.05;99667.50;2055215;28;19930;-52
2022/03/25 02:18:40;;;;;;;;;;;;;;;18.40;56.03;99665.66;2052752;28;20431;-55
2022/03/25 02:19:41;;;;;;;;;;;;;;;18.38;55.93;99668.50;2056272;28;19929;-54
2022/03/25 02:20:43;;;;;;;;;;;;;;;18.38;55.80;99657.75;2056120;28;20024;-54
2022/03/25 02:21:47;;;;;;;;;;;;;;;18.37;55.89;99664.16;2053008;28;20371;-56
2022/03/25 02:22:49;;;;;;;;;;;;;;;18.38;56.11;99659.63;2057955;28;19922;-53
2022/03/25 02:23:49;;;;;;;;;;;;;;;18.38;56.05;99665.81;2054279;28;20005;-48
2022/03/25 02:24:51;;;;;;;;;;;;;;;18.38;55.76;99660.44;2055889;28;20029;-58
2022/03/25 02:25:53;;;;;;;;;;;;;;;18.36;55.82;99659.81;2055892;28;20068;-55
2022/03/25 02:26:55;;;;;;;;;;;;;;;18.37;55.93;99658.78;2052272;28;20020;-52
2022/03/25 02:27:57;;;;;;;;;;;;;;;18.36;55.92;99662.50;2054316;28;19921;-55
2022/03/25 02:28:59;;;;;;;;;;;;;;;18.36;55.84;99661.63;2053506;28;19949;-52
2022/03/25 02:29:59;;;;;;;;;;;;;;;18.34;55.75;99656.47;2057713;28;19925;-49
2022/03/25 02:31:01;;;;;;;;;;;;;;;18.35;55.64;99652.75;2054196;28;19972;-56
2022/03/25 02:32:01;;;;;;;;;;;;;;;18.33;55.62;99654.78;2054352;28;19934;-52
2022/03/25 02:33:04;;;;;;;;;;;;;;;18.34;55.73;99656.47;2053159;28;20621;-55
2022/03/25 02:34:06;;;;;;;;;;;;;;;18.32;55.99;99658.47;2055594;28;19988;-53
2022/03/25 02:35:08;;;;;;;;;;;;;;;18.32;55.83;99655.78;2053420;28;19929;-52
2022/03/25 02:36:10;;;;;;;;;;;;;;;18.30;55.94;99650.63;2053546;28;20020;-56
2022/03/25 02:37:12;;;;;;;;;;;;;;;18.31;55.90;99660.31;2055107;28;19926;-58
2022/03/25 02:38:16;;;;;;;;;;;;;;;18.29;55.68;99654.28;2056828;28;19953;-53
2022/03/25 02:39:17;;;;;;;;;;;;;;;18.31;55.97;99659.50;2056227;28;19999;-52
2022/03/25 02:40:19;;;;;;;;;;;;;;;18.30;55.81;99663.19;2054966;28;20364;-54
2022/03/25 02:41:20;;;;;;;;;;;;;;;18.29;56.13;99665.03;2056755;28;19954;-52
2022/03/25 02:42:21;;;;;;;;;;;;;;;18.30;56.00;99663.19;2055310;28;19957;-54
2022/03/25 02:43:22;;;;;;;;;;;;;;;18.30;55.74;99664.03;2055661;28;19926;-55
2022/03/25 02:44:23;;;;;;;;;;;;;;;18.29;55.83;99665.03;2055813;28;19936;-54
2022/03/25 02:45:24;;;;;;;;;;;;;;;18.29;55.76;99662.34;2054582;28;20512;-57
2022/03/25 02:46:25;;;;;;;;;;;;;;;18.29;55.99;99658.81;2051661;28;19976;-54
2022/03/25 02:47:27;;;;;;;;;;;;;;;18.29;55.93;99664.19;2055640;28;19934;-52
2022/03/25 02:48:28;;;;;;;;;;;;;;;18.28;55.67;99659.84;2054819;28;20017;-53
2022/03/25 02:49:29;;;;;;;;;;;;;;;18.28;56.07;99657.16;2052977;28;19953;-50
2022/03/25 02:50:31;;;;;;;;;;;;;;;18.26;55.90;99657.34;2056298;28;20307;-51
2022/03/25 02:51:31;;;;;;;;;;;;;;;18.26;55.77;99661.88;2053896;28;19929;-55
2022/03/25 02:52:34;;;;;;;;;;;;;;;18.26;55.85;99656.50;2054227;28;19933;-53
2022/03/25 02:53:35;;;;;;;;;;;;;;;18.25;55.57;99660.22;2051918;28;19933;-59
2022/03/25 02:54:37;;;;;;;;;;;;;;;18.23;55.89;99662.22;2054415;28;20016;-52
2022/03/25 02:55:38;;;;;;;;;;;;;;;18.24;55.81;99650.47;2055989;28;19929;-51
2022/03/25 02:56:39;;;;;;;;;;;;;;;18.24;56.07;99650.47;2055019;28;20016;-50
2022/03/25 02:57:41;;;;;;;;;;;;;;;18.25;56.09;99657.53;2055138;28;20396;-57
2022/03/25 02:58:43;;;;;;;;;;;;;;;18.22;56.12;99660.53;2051551;28;19940;-50
2022/03/25 02:59:44;;;;;;;;;;;;;;;18.22;55.95;99660.53;2053920;28;19929;-54
2022/03/25 03:00:45;;;;;;;;;;;;;;;18.21;56.03;99661.56;2049932;28;19930;-52
2022/03/25 03:01:46;;;;;;;;;;;;;;;18.21;56.03;99659.69;2053787;28;19964;-53
2022/03/25 03:02:47;;;;;;;;;;;;;;;18.21;55.86;99662.38;2051449;28;19922;-52
2022/03/25 03:03:48;;;;;;;;;;;;;;;18.20;55.98;99660.72;2053913;28;19975;-50
2022/03/25 03:04:49;;;;;;;;;;;;;;;18.20;56.07;99657.22;2054589;28;20524;-53
2022/03/25 03:05:50;;;;;;;;;;;;;;;18.18;55.72;99657.38;2055150;28;19975;-52
2022/03/25 03:06:51;;;;;;;;;;;;;;;18.19;55.87;99658.19;2054922;28;19930;-53
2022/03/25 03:07:54;;;;;;;;;;;;;;;18.19;55.98;99660.88;2055706;28;19930;-51
2022/03/25 03:08:56;;;;;;;;;;;;;;;18.19;55.98;99663.56;2054829;28;19954;-55
2022/03/25 03:09:57;;;;;;;;;;;;;;;18.18;56.13;99665.44;2053166;28;20357;-54
2022/03/25 03:10:58;;;;;;;;;;;;;;;18.17;56.02;99665.63;2052867;28;19922;-54
2022/03/25 03:11:59;;;;;;;;;;;;;;;18.16;55.97;99662.06;2057797;28;19929;-55
2022/03/25 03:13:02;;;;;;;;;;;;;;;18.16;56.13;99667.44;2053190;28;19969;-55
2022/03/25 03:14:03;;;;;;;;;;;;;;;18.15;56.25;99663.09;2052048;28;19937;-54
2022/03/25 03:15:05;;;;;;;;;;;;;;;18.15;55.67;99663.09;2056135;28;20012;-49
2022/03/25 03:16:06;;;;;;;;;;;;;;;18.12;55.93;99660.78;2052989;28;20015;-54
2022/03/25 03:17:08;;;;;;;;;;;;;;;18.13;56.12;99661.59;2054010;28;20435;-55
2022/03/25 03:18:10;;;;;;;;;;;;;;;18.15;55.96;99662.28;2055981;28;20015;-50
2022/03/25 03:19:10;;;;;;;;;;;;;;;18.14;55.96;99665.97;2052291;28;19929;-51
2022/03/25 03:20:12;;;;;;;;;;;;;;;18.11;56.08;99653.75;2054345;28;19937;-53
2022/03/25 03:21:13;;;;;;;;;;;;;;;18.12;56.23;99662.63;2056362;28;19929;-52
2022/03/25 03:22:15;;;;;;;;;;;;;;;18.10;56.00;99660.09;2056012;28;20008;-51
2022/03/25 03:23:17;;;;;;;;;;;;;;;18.11;56.16;99660.94;2054960;28;19922;-52
2022/03/25 03:24:18;;;;;;;;;;;;;;;18.09;56.13;99653.91;2056194;28;20012;-55
2022/03/25 03:25:20;;;;;;;;;;;;;;;18.08;55.82;99654.91;2055487;28;19922;-52
2022/03/25 03:26:22;;;;;;;;;;;;;;;18.09;56.17;99666.50;2055820;28;19932;-55
2022/03/25 03:27:23;;;;;;;;;;;;;;;18.07;56.33;99658.59;2055660;28;20123;-53
2022/03/25 03:28:24;;;;;;;;;;;;;;;18.09;56.22;99663.81;2054839;28;19932;-57
2022/03/25 03:29:25;;;;;;;;;;;;;;;18.07;55.82;99655.91;2054183;28;20308;-52
2022/03/25 03:30:27;;;;;;;;;;;;;;;18.06;56.17;99658.78;2055855;28;19973;-52
2022/03/25 03:31:28;;;;;;;;;;;;;;;18.06;55.97;99665.00;2051680;28;19922;-56
2022/03/25 03:32:29;;;;;;;;;;;;;;;18.05;55.75;99663.31;2052241;28;19922;-53
2022/03/25 03:33:30;;;;;;;;;;;;;;;18.04;56.01;99655.44;2052669;28;21034;-51
2022/03/25 03:34:32;;;;;;;;;;;;;;;18.06;56.19;99658.78;2052100;28;19928;-57
2022/03/25 03:35:35;;;;;;;;;;;;;;;18.06;55.99;99656.09;2052319;28;19921;-56
2022/03/25 03:36:35;;;;;;;;;;;;;;;18.05;55.91;99659.78;2053115;28;19921;-53
2022/03/25 03:37:40;;;;;;;;;;;;;;;18.06;56.15;99658.78;2054575;28;20949;-52
2022/03/25 03:38:42;;;;;;;;;;;;;;;18.05;56.16;99657.97;2054584;28;19929;-52
2022/03/25 03:39:44;;;;;;;;;;;;;;;18.01;55.82;99656.63;2054155;28;19976;-56
2022/03/25 03:40:45;;;;;;;;;;;;;;;17.99;56.30;99653.25;2051771;28;19922;-53
2022/03/25 03:41:46;;;;;;;;;;;;;;;18.02;56.00;99660.13;2054084;28;19980;-53
2022/03/25 03:42:48;;;;;;;;;;;;;;;18.00;56.16;99654.13;2051289;28;19937;-54
2022/03/25 03:43:48;;;;;;;;;;;;;;;18.00;56.01;99652.28;2052287;28;19949;-51
2022/03/25 03:44:50;;;;;;;;;;;;;;;18.00;56.26;99656.81;2053668;28;20607;-53
2022/03/25 03:45:50;;;;;;;;;;;;;;;17.99;55.87;99658.63;2052481;28;22057;-53
2022/03/25 03:46:52;;;;;;;;;;;;;;;17.98;56.13;99650.78;2057167;28;19930;-55
2022/03/25 03:47:53;;;;;;;;;;;;;;;17.99;56.56;99652.44;2053069;28;19930;-55
2022/03/25 03:48:55;;;;;;;;;;;;;;;17.98;55.92;99651.59;2052611;28;20491;-59
2022/03/25 03:49:55;;;;;;;;;;;;;;;17.97;56.00;99649.94;2055718;28;19933;-57
2022/03/25 03:50:57;;;;;;;;;;;;;;;17.98;56.08;99653.47;2052779;28;20021;-57
2022/03/25 03:51:57;;;;;;;;;;;;;;;17.96;56.20;99648.25;2052917;28;20516;-56
2022/03/25 03:52:59;;;;;;;;;;;;;;;17.97;56.24;99649.94;2054092;28;20012;-57
2022/03/25 03:54:01;;;;;;;;;;;;;;;17.96;56.18;99640.19;2054270;28;19937;-58
2022/03/25 03:55:03;;;;;;;;;;;;;;;17.94;56.38;99650.28;2051662;28;20430;-53
2022/03/25 03:56:03;;;;;;;;;;;;;;;17.94;56.24;99650.28;2053659;28;19930;-53
2022/03/25 03:57:07;;;;;;;;;;;;;;;17.95;56.13;99651.94;2054148;28;19961;-56
2022/03/25 03:58:09;;;;;;;;;;;;;;;17.95;56.26;99651.13;2055744;28;19925;-54
2022/03/25 03:59:10;;;;;;;;;;;;;;;17.93;56.11;99651.28;2051525;28;19941;-52
2022/03/25 04:00:12;;;;;;;;;;;;;;;17.94;56.39;99652.13;2052153;28;19933;-57
2022/03/25 04:01:13;;;;;;;;;;;;;;;17.93;56.29;99650.47;2050767;28;19925;-51
2022/03/25 04:02:14;;;;;;;;;;;;;;;17.91;56.19;99653.28;2054338;28;20009;-52
2022/03/25 04:03:16;;;;;;;;;;;;;;;17.91;56.56;99647.94;2054549;28;19922;-59
2022/03/25 04:04:17;;;;;;;;;;;;;;;17.91;56.30;99649.78;2052378;28;20541;-56
2022/03/25 04:05:19;;;;;;;;;;;;;;;17.91;56.04;99650.63;2055344;28;19922;-58
2022/03/25 04:06:22;;;;;;;;;;;;;;;17.90;55.86;99654.31;2054641;28;19922;-59
2022/03/25 04:07:23;;;;;;;;;;;;;;;17.90;56.29;99650.81;2050906;28;19933;-50
2022/03/25 04:08:24;;;;;;;;;;;;;;;17.91;56.68;99647.94;2055250;28;20031;-56
2022/03/25 04:09:27;;;;;;;;;;;;;;;17.91;55.89;99653.28;2052671;28;19925;-56
2022/03/25 04:10:28;;;;;;;;;;;;;;;17.90;56.39;99653.50;2049324;28;19923;-58
2022/03/25 04:11:29;;;;;;;;;;;;;;;17.91;56.34;99653.28;2044902;28;19930;-54
2022/03/25 04:12:30;;;;;;;;;;;;;;;17.88;56.14;99656.34;2050786;28;19936;-57
2022/03/25 04:13:31;;;;;;;;;;;;;;;17.87;56.59;99649.31;2053682;28;19930;-53
2022/03/25 04:14:32;;;;;;;;;;;;;;;17.88;56.14;99656.34;2051606;28;19975;-54
2022/03/25 04:15:34;;;;;;;;;;;;;;;17.88;56.28;99645.59;2054979;28;20526;-53
2022/03/25 04:16:35;;;;;;;;;;;;;;;17.87;55.96;99649.31;2053269;28;19999;-54
2022/03/25 04:17:37;;;;;;;;;;;;;;;17.89;56.27;99658.03;2049343;28;19928;-56
2022/03/25 04:18:37;;;;;;;;;;;;;;;17.88;56.20;99650.13;2052246;28;20006;-55
2022/03/25 04:19:39;;;;;;;;;;;;;;;17.87;56.21;99654.66;2054766;28;20065;-55
2022/03/25 04:20:40;;;;;;;;;;;;;;;17.87;56.33;99657.34;2052803;28;20025;-54
2022/03/25 04:21:41;;;;;;;;;;;;;;;17.84;56.39;99663.06;2051416;28;19922;-55
2022/03/25 04:22:42;;;;;;;;;;;;;;;17.83;56.09;99656.88;2053617;28;19922;-54
2022/03/25 04:23:44;;;;;;;;;;;;;;;17.84;56.51;99660.38;2054424;28;20028;-54
2022/03/25 04:24:46;;;;;;;;;;;;;;;17.85;56.48;99662.06;2054487;28;19930;-56
2022/03/25 04:25:47;;;;;;;;;;;;;;;17.84;56.28;99655.03;2053534;28;20414;-57
2022/03/25 04:26:48;;;;;;;;;;;;;;;17.84;56.31;99660.38;2056481;28;20011;-53
2022/03/25 04:27:51;;;;;;;;;;;;;;;17.83;56.08;99658.72;2051701;28;19926;-58
2022/03/25 04:28:51;;;;;;;;;;;;;;;17.82;56.27;99657.03;2052619;28;19929;-52
2022/03/25 04:29:55;;;;;;;;;;;;;;;17.80;56.17;99659.91;2053207;28;20009;-54
2022/03/25 04:30:56;;;;;;;;;;;;;;;17.81;56.21;99666.94;2056290;28;20031;-56
2022/03/25 04:31:57;;;;;;;;;;;;;;;17.78;56.18;99661.06;2053735;28;19922;-54
2022/03/25 04:32:59;;;;;;;;;;;;;;;17.79;56.30;99668.13;2057064;28;19964;-57
2022/03/25 04:33:59;;;;;;;;;;;;;;;17.78;56.34;99661.06;2054239;28;19925;-55
2022/03/25 04:35:01;;;;;;;;;;;;;;;17.78;56.00;99661.06;2054544;28;20367;-55
2022/03/25 04:36:01;;;;;;;;;;;;;;;17.79;56.55;99660.06;2051943;28;19961;-54
2022/03/25 04:37:03;;;;;;;;;;;;;;;17.78;56.36;99658.38;2053967;28;20411;-58
2022/03/25 04:38:04;;;;;;;;;;;;;;;17.80;56.46;99664.41;2052987;28;20008;-56
2022/03/25 04:39:06;;;;;;;;;;;;;;;17.77;55.97;99659.38;2054910;28;19926;-57
2022/03/25 04:40:09;;;;;;;;;;;;;;;17.78;56.25;99666.44;2055637;28;19929;-52
2022/03/25 04:41:11;;;;;;;;;;;;;;;17.76;56.19;99669.25;2055758;28;19969;-53
2022/03/25 04:42:13;;;;;;;;;;;;;;;17.77;56.19;99670.94;2053061;28;19973;-54
2022/03/25 04:43:15;;;;;;;;;;;;;;;17.76;56.29;99668.44;2054813;28;20483;-52
2022/03/25 04:44:15;;;;;;;;;;;;;;;17.78;56.50;99671.78;2053741;28;19922;-52
2022/03/25 04:45:17;;;;;;;;;;;;;;;17.75;56.28;99670.28;2054205;28;19949;-53
2022/03/25 04:46:18;;;;;;;;;;;;;;;17.74;56.21;99671.28;2054422;28;19933;-53
2022/03/25 04:47:20;;;;;;;;;;;;;;;17.73;56.30;99674.16;2056321;28;19922;-51
2022/03/25 04:48:21;;;;;;;;;;;;;;;17.76;56.41;99673.81;2052873;28;19929;-52
2022/03/25 04:49:23;;;;;;;;;;;;;;;17.76;56.12;99674.63;2053568;28;20156;-51
2022/03/25 04:50:23;;;;;;;;;;;;;;;17.74;56.02;99679.31;2052059;28;20486;-54
2022/03/25 04:51:25;;;;;;;;;;;;;;;17.73;56.09;99672.28;2055535;28;19922;-53
2022/03/25 04:52:25;;;;;;;;;;;;;;;17.69;56.11;99679.03;2053467;28;20426;-52
2022/03/25 04:53:27;;;;;;;;;;;;;;;17.70;56.43;99679.88;2055400;28;19925;-55
2022/03/25 04:54:28;;;;;;;;;;;;;;;17.71;56.26;99677.00;2054980;28;19921;-55
2022/03/25 04:55:31;;;;;;;;;;;;;;;17.72;56.43;99677.81;2055520;28;19925;-51
2022/03/25 04:56:34;;;;;;;;;;;;;;;17.72;56.36;99677.81;2052885;28;19930;-51
2022/03/25 04:57:35;;;;;;;;;;;;;;;17.73;56.28;99679.53;2055455;28;20565;-56
2022/03/25 04:58:37;;;;;;;;;;;;;;;17.72;56.17;99680.50;2051811;28;19926;-52
2022/03/25 04:59:37;;;;;;;;;;;;;;;17.72;56.14;99683.19;2051478;28;19965;-51
2022/03/25 05:00:39;;;;;;;;;;;;;;;17.68;56.29;99690.75;2053733;28;19922;-52
2022/03/25 05:01:40;;;;;;;;;;;;;;;17.70;56.36;99679.88;2053391;28;19929;-53
2022/03/25 05:02:41;;;;;;;;;;;;;;;17.69;56.08;99687.09;2053040;28;19930;-53
2022/03/25 05:03:43;;;;;;;;;;;;;;;17.69;56.43;99686.22;2054990;28;19933;-50
2022/03/25 05:04:43;;;;;;;;;;;;;;;17.68;56.26;99687.25;2052954;28;20542;-54
2022/03/25 05:05:45;;;;;;;;;;;;;;;17.68;56.21;99687.25;2054458;28;19937;-53
2022/03/25 05:06:45;;;;;;;;;;;;;;;17.70;56.53;99686.06;2051585;28;19937;-53
2022/03/25 05:07:50;;;;;;;;;;;;;;;17.69;56.08;99689.75;2053949;28;20426;-54
2022/03/25 05:08:50;;;;;;;;;;;;;;;17.70;56.30;99685.22;2053569;28;19980;-53
2022/03/25 05:09:52;;;;;;;;;;;;;;;17.71;56.45;99692.25;2052857;28;19934;-52
2022/03/25 05:10:55;;;;;;;;;;;;;;;17.78;56.26;99693.25;2054102;28;19922;-54
2022/03/25 05:11:56;;;;;;;;;;;;;;;17.80;56.29;99686.75;2055695;28;19940;-54
2022/03/25 05:12:58;;;;;;;;;;;;;;;17.80;55.71;99686.75;2054642;28;20056;-53
2022/03/25 05:13:58;;;;;;;;;;;;;;;17.83;55.68;99688.25;2054332;28;19930;-52
2022/03/25 05:15:00;;;;;;;;;;;;;;;17.85;55.70;99688.88;2050690;28;19926;-54
2022/03/25 05:16:00;;;;;;;;;;;;;;;17.88;55.41;99693.91;2054375;28;19975;-52
2022/03/25 05:17:02;;;;;;;;;;;;;;;17.94;55.64;99692.38;2054712;28;19934;-53
2022/03/25 05:18:03;;;;;;;;;;;;;;;17.95;55.39;99697.59;2051063;28;20296;-53
2022/03/25 05:19:05;;;;;;;;;;;;;;;17.97;55.62;99698.25;2053692;28;19922;-53
2022/03/25 05:20:05;;;;;;;;;;;;;;;18.00;55.51;99695.22;2052691;28;19929;-54